createdAt,value
2023-03-12T00:02:14.691Z,74.12
2023-03-12T00:04:41.084Z,73.80
2023-03-12T00:07:08.780Z,73.51
2023-03-12T00:09:36.956Z,73.27
2023-03-12T00:12:03.626Z,73.14
2023-03-12T00:14:30.237Z,72.67
2023-03-12T00:16:56.768Z,72.25
2023-03-12T00:19:23.236Z,71.95
2023-03-12T00:21:49.613Z,72.03
2023-03-12T00:24:16.608Z,71.73
2023-03-12T00:26:43.714Z,71.24
2023-03-12T00:29:10.257Z,70.62
2023-03-12T00:31:36.682Z,70.45
2023-03-12T00:34:03.430Z,70.19
2023-03-12T00:36:32.007Z,70.18
2023-03-12T00:38:59.182Z,70.07
2023-03-12T00:41:27.073Z,70.57
2023-03-12T00:43:53.713Z,70.67
2023-03-12T00:46:20.394Z,70.41
2023-03-12T00:48:47.136Z,70.40
2023-03-12T00:51:14.036Z,70.62
2023-03-12T00:53:40.423Z,69.80
2023-03-12T00:56:07.314Z,70.13
2023-03-12T00:58:33.725Z,68.97
2023-03-12T01:01:00.356Z,68.49
2023-03-12T01:03:26.869Z,69.01
2023-03-12T01:05:55.809Z,68.64
2023-03-12T01:08:22.887Z,68.53
2023-03-12T01:10:49.795Z,68.45
2023-03-12T01:13:16.421Z,68.46
2023-03-12T01:15:42.862Z,68.71
2023-03-12T01:18:09.255Z,68.64
2023-03-12T01:20:36.184Z,68.95
2023-03-12T01:23:02.578Z,68.80
2023-03-12T01:25:28.950Z,68.80
2023-03-12T01:27:55.342Z,68.26
2023-03-12T01:30:21.765Z,68.47
2023-03-12T01:32:48.190Z,68.27
2023-03-12T01:35:14.725Z,68.26
2023-03-12T01:37:41.081Z,68.08
2023-03-12T01:40:07.848Z,68.36
2023-03-12T01:42:34.232Z,68.99
2023-03-12T01:45:03.517Z,68.73
2023-03-12T01:47:32.759Z,69.33
2023-03-12T01:50:00.588Z,68.97
2023-03-12T01:52:36.193Z,68.85
2023-03-12T01:55:14.807Z,68.91
2023-03-12T01:57:47.178Z,69.09
2023-03-12T02:00:20.041Z,68.53
2023-03-12T02:02:47.949Z,68.56
2023-03-12T02:05:27.045Z,68.22
2023-03-12T02:07:53.823Z,68.88
2023-03-12T02:10:21.274Z,69.02
2023-03-12T02:12:47.746Z,68.99
2023-03-12T02:15:14.214Z,68.54
2023-03-12T02:17:40.947Z,68.96
2023-03-12T02:20:27.057Z,68.27
2023-03-12T02:23:06.286Z,68.80
2023-03-12T02:25:47.600Z,68.18
2023-03-12T02:28:15.761Z,68.29
2023-03-12T02:30:45.994Z,68.17
2023-03-12T02:33:15.026Z,68.38
2023-03-12T02:35:42.546Z,68.66
2023-03-12T02:38:48.427Z,68.75
2023-03-12T02:41:22.843Z,68.58
2023-03-12T02:43:56.965Z,68.81
2023-03-12T02:46:23.635Z,69.02
2023-03-12T02:48:50.512Z,68.83
2023-03-12T02:51:17.022Z,68.71
2023-03-12T02:53:43.568Z,68.61
2023-03-12T02:56:09.924Z,69.64
2023-03-12T02:58:37.417Z,69.68
2023-03-12T03:01:04.097Z,69.21
2023-03-12T03:03:30.430Z,69.32
2023-03-12T03:05:56.909Z,68.95
2023-03-12T03:08:23.949Z,68.88
2023-03-12T03:10:51.975Z,69.06
2023-03-12T03:13:18.324Z,68.66
2023-03-12T03:15:44.772Z,68.78
2023-03-12T03:18:11.157Z,68.86
2023-03-12T03:20:37.546Z,68.66
2023-03-12T03:23:04.544Z,68.89
2023-03-12T03:25:30.923Z,68.84
2023-03-12T03:27:57.372Z,68.44
2023-03-12T03:30:23.954Z,68.40
2023-03-12T03:32:50.488Z,68.42
2023-03-12T03:35:17.484Z,68.64
2023-03-12T03:37:44.085Z,68.61
2023-03-12T03:40:12.231Z,68.43
2023-03-12T03:42:39.465Z,68.09
2023-03-12T03:45:07.408Z,68.50
2023-03-12T03:47:33.829Z,68.13
2023-03-12T03:50:00.142Z,68.22
2023-03-12T03:52:26.469Z,68.76
2023-03-12T03:54:54.054Z,68.78
2023-03-12T03:57:20.401Z,68.68
2023-03-12T03:59:46.774Z,68.90
2023-03-12T04:02:13.099Z,68.83
2023-03-12T04:04:39.677Z,68.29
2023-03-12T04:07:06.085Z,69.07
2023-03-12T04:09:32.557Z,68.64
2023-03-12T04:11:58.931Z,68.79
2023-03-12T04:14:25.326Z,68.57
2023-03-12T04:16:51.647Z,68.65
2023-03-12T04:19:18.022Z,68.56
2023-03-12T04:21:44.425Z,68.46
2023-03-12T04:24:15.537Z,69.37
2023-03-12T04:26:42.341Z,69.33
2023-03-12T04:29:08.721Z,69.29
2023-03-12T04:31:35.307Z,69.17
2023-03-12T04:34:01.701Z,69.58
2023-03-12T04:36:28.104Z,69.92
2023-03-12T04:38:55.752Z,70.32
2023-03-12T04:41:22.071Z,70.81
2023-03-12T04:43:48.432Z,71.00
2023-03-12T04:46:15.098Z,70.68
2023-03-12T04:48:41.497Z,71.53
2023-03-12T04:51:08.028Z,71.91
2023-03-12T04:53:34.705Z,72.22
2023-03-12T04:56:01.175Z,72.12
2023-03-12T04:58:27.777Z,72.44
2023-03-12T05:00:54.120Z,72.99
2023-03-12T05:03:20.512Z,73.72
2023-03-12T05:05:47.004Z,74.05
2023-03-12T05:08:13.410Z,74.00
2023-03-12T05:10:40.070Z,74.43
2023-03-12T05:13:16.978Z,74.90
2023-03-12T05:15:44.095Z,74.60
2023-03-12T05:18:10.605Z,74.69
2023-03-12T05:20:37.003Z,75.28
2023-03-12T05:23:03.400Z,75.20
2023-03-12T05:25:29.799Z,74.70
2023-03-12T05:27:56.240Z,74.79
2023-03-12T05:30:22.769Z,75.20
2023-03-12T05:32:49.197Z,74.82
2023-03-12T05:35:15.703Z,75.47
2023-03-12T05:37:42.846Z,75.47
2023-03-12T05:40:13.138Z,75.63
2023-03-12T05:42:39.734Z,75.14
2023-03-12T05:45:06.826Z,75.57
2023-03-12T05:47:33.153Z,75.28
2023-03-12T05:49:59.611Z,75.24
2023-03-12T05:52:26.031Z,75.07
2023-03-12T05:54:52.937Z,75.66
2023-03-12T05:57:19.312Z,75.21
2023-03-12T05:59:45.647Z,75.69
2023-03-12T06:02:12.056Z,75.29
2023-03-12T06:04:38.463Z,75.42
2023-03-12T06:07:04.829Z,75.91
2023-03-12T06:09:31.226Z,75.68
2023-03-12T06:11:57.646Z,76.15
2023-03-12T06:14:24.138Z,76.15
2023-03-12T06:16:50.586Z,76.64
2023-03-12T06:19:17.010Z,76.80
2023-03-12T06:21:43.929Z,76.80
2023-03-12T06:24:10.665Z,77.29
2023-03-12T06:26:37.191Z,77.28
2023-03-12T06:29:03.644Z,77.27
2023-03-12T06:31:30.169Z,77.44
2023-03-12T06:33:56.660Z,78.04
2023-03-12T06:36:23.991Z,78.35
2023-03-12T06:38:50.574Z,78.40
2023-03-12T06:41:18.864Z,78.50
2023-03-12T06:43:45.925Z,78.91
2023-03-12T06:46:15.959Z,79.17
2023-03-12T06:48:42.624Z,78.99
2023-03-12T06:51:11.095Z,80.12
2023-03-12T06:53:40.337Z,79.74
2023-03-12T06:56:08.329Z,80.66
2023-03-12T06:58:34.758Z,80.84
2023-03-12T07:01:01.096Z,81.57
2023-03-12T07:03:27.410Z,81.44
2023-03-12T07:05:56.020Z,82.32
2023-03-12T07:08:23.178Z,82.44
2023-03-12T07:10:49.563Z,82.55
2023-03-12T07:13:16.218Z,83.17
2023-03-12T07:15:42.641Z,83.73
2023-03-12T07:18:11.095Z,84.10
2023-03-12T07:20:39.560Z,83.62
2023-03-12T07:23:06.342Z,84.59
2023-03-12T07:25:36.540Z,84.91
2023-03-12T07:28:03.507Z,84.83
2023-03-12T07:30:33.717Z,85.05
2023-03-12T07:33:05.118Z,84.94
2023-03-12T07:35:32.735Z,85.19
2023-03-12T07:38:00.726Z,85.86
2023-03-12T07:40:28.524Z,85.45
2023-03-12T07:42:55.137Z,85.90
2023-03-12T07:45:22.233Z,86.13
2023-03-12T07:47:49.599Z,86.06
2023-03-12T07:50:17.539Z,86.93
2023-03-12T07:52:44.504Z,86.34
2023-03-12T07:55:11.599Z,87.14
2023-03-12T07:57:38.975Z,87.25
2023-03-12T08:00:07.594Z,86.77
2023-03-12T08:02:34.752Z,87.25
2023-03-12T08:05:01.254Z,87.06
2023-03-12T08:07:32.183Z,87.59
2023-03-12T08:09:59.584Z,87.12
2023-03-12T08:12:26.298Z,87.76
2023-03-12T08:14:52.766Z,87.58
2023-03-12T08:17:19.588Z,87.47
2023-03-12T08:19:46.070Z,87.60
2023-03-12T08:22:12.412Z,88.04
2023-03-12T08:24:39.331Z,88.22
2023-03-12T08:27:05.776Z,88.69
2023-03-12T08:29:33.445Z,88.86
2023-03-12T08:32:05.084Z,88.84
2023-03-12T08:34:33.639Z,89.21
2023-03-12T08:37:00.010Z,89.28
2023-03-12T08:39:26.425Z,89.07
2023-03-12T08:41:55.676Z,89.72
2023-03-12T08:44:23.224Z,89.57
2023-03-12T08:46:49.947Z,89.54
2023-03-12T08:49:16.409Z,89.62
2023-03-12T08:51:42.818Z,89.92
2023-03-12T08:54:09.529Z,90.24
2023-03-12T08:56:38.576Z,90.16
2023-03-12T08:59:04.963Z,90.73
2023-03-12T09:01:31.428Z,90.75
2023-03-12T09:03:57.869Z,91.12
2023-03-12T09:06:24.324Z,91.56
2023-03-12T09:08:51.600Z,91.44
2023-03-12T09:11:18.247Z,92.06
2023-03-12T09:14:08.483Z,92.11
2023-03-12T09:16:31.446Z,91.86
2023-03-12T09:18:57.874Z,91.92
2023-03-12T09:21:24.208Z,92.64
2023-03-12T09:23:50.597Z,92.45
2023-03-12T09:26:17.078Z,92.96
2023-03-12T09:28:44.851Z,93.08
2023-03-12T09:31:12.187Z,93.25
2023-03-12T09:33:39.031Z,93.72
2023-03-12T09:36:05.753Z,93.77
2023-03-12T09:38:35.185Z,93.76
2023-03-12T09:41:04.477Z,93.97
2023-03-12T09:43:39.691Z,94.19
2023-03-12T09:46:15.246Z,94.82
2023-03-12T09:48:42.112Z,94.54
2023-03-12T09:51:08.461Z,95.00
2023-03-12T09:54:06.474Z,95.12
2023-03-12T09:56:34.320Z,95.24
2023-03-12T09:59:01.904Z,95.28
2023-03-12T10:01:38.989Z,95.59
2023-03-12T10:04:59.775Z,95.79
2023-03-12T10:07:32.173Z,96.11
2023-03-12T10:10:24.390Z,96.34
2023-03-12T10:13:26.126Z,96.92
2023-03-12T10:16:12.329Z,96.85
2023-03-12T10:19:10.153Z,97.24
2023-03-12T10:21:55.997Z,97.37
2023-03-12T10:24:48.323Z,97.62
2023-03-12T10:27:16.999Z,97.82
2023-03-12T10:29:50.432Z,97.93
2023-03-12T10:32:25.116Z,98.24
2023-03-12T10:35:12.990Z,98.48
2023-03-12T10:37:44.365Z,98.90
2023-03-12T10:40:22.170Z,98.96
2023-03-12T10:42:49.184Z,99.17
2023-03-12T10:45:56.528Z,99.27
2023-03-12T10:48:25.733Z,99.87
2023-03-12T10:51:05.808Z,99.45
2023-03-12T10:53:35.450Z,99.75
2023-03-12T10:56:13.846Z,100.00
2023-03-12T10:58:42.739Z,99.93
2023-03-12T11:01:30.918Z,100.00
2023-03-12T11:04:29.489Z,100.00
2023-03-12T11:07:14.426Z,100.00
2023-03-12T11:09:41.213Z,100.00
2023-03-12T11:12:28.290Z,100.00
2023-03-12T11:14:54.681Z,100.00
2023-03-12T11:17:24.487Z,100.00
2023-03-12T11:19:51.713Z,100.00
2023-03-12T11:22:33.193Z,100.00
2023-03-12T11:25:04.085Z,100.00
2023-03-12T11:27:49.430Z,100.00
2023-03-12T11:30:21.869Z,100.00
2023-03-12T11:32:50.469Z,100.00
2023-03-12T11:35:26.543Z,100.00
2023-03-12T11:38:30.672Z,100.00
2023-03-12T11:41:33.229Z,100.00
2023-03-12T11:44:14.683Z,100.00
2023-03-12T11:46:59.550Z,100.00
2023-03-12T11:49:49.635Z,100.00
2023-03-12T11:52:29.817Z,100.00
2023-03-12T11:55:21.255Z,100.00
2023-03-12T11:58:17.289Z,100.00
2023-03-12T12:00:55.288Z,100.00
2023-03-12T12:03:46.059Z,100.00
2023-03-12T12:06:27.509Z,100.00
2023-03-12T12:09:00.018Z,100.00
2023-03-12T12:12:05.216Z,100.00
2023-03-12T12:15:01.045Z,100.00
2023-03-12T12:17:44.375Z,100.00
2023-03-12T12:20:37.732Z,100.00
2023-03-12T12:23:10.576Z,100.00
2023-03-12T12:26:19.538Z,100.00
2023-03-12T12:28:45.872Z,100.00
2023-03-12T12:31:35.969Z,100.00
2023-03-12T12:34:44.322Z,100.00
2023-03-12T12:37:41.402Z,100.00
2023-03-12T12:40:29.130Z,100.00
2023-03-12T12:43:06.123Z,100.00
2023-03-12T12:45:32.701Z,100.00
2023-03-12T12:48:04.679Z,100.00
2023-03-12T12:50:37.044Z,100.00
2023-03-12T12:53:25.503Z,100.00
2023-03-12T12:56:01.290Z,100.00
2023-03-12T12:58:49.645Z,100.00
2023-03-12T13:01:17.848Z,100.00
2023-03-12T13:03:46.874Z,100.00
2023-03-12T13:06:13.429Z,100.00
2023-03-12T13:08:42.922Z,100.00
2023-03-12T13:11:19.774Z,100.00
2023-03-12T13:14:10.982Z,100.00
2023-03-12T13:16:42.860Z,100.00
2023-03-12T13:19:15.727Z,100.00
2023-03-12T13:21:51.105Z,100.00
2023-03-12T13:24:31.126Z,100.00
2023-03-12T13:27:07.971Z,100.00
2023-03-12T13:29:36.298Z,100.00
2023-03-12T13:32:03.035Z,100.00
2023-03-12T13:34:41.605Z,100.00
2023-03-12T13:37:20.551Z,100.00
2023-03-12T13:39:46.896Z,100.00
2023-03-12T13:42:25.115Z,100.00
2023-03-12T13:44:53.297Z,100.00
2023-03-12T13:47:31.266Z,100.00
2023-03-12T13:50:06.222Z,100.00
2023-03-12T13:52:39.628Z,100.00
2023-03-12T13:55:15.853Z,99.93
2023-03-12T13:57:48.345Z,99.21
2023-03-12T14:00:25.062Z,98.55
2023-03-12T14:03:18.289Z,98.43
2023-03-12T14:05:51.590Z,97.58
2023-03-12T14:08:33.133Z,97.54
2023-03-12T14:10:59.413Z,96.74
2023-03-12T14:13:47.948Z,95.95
2023-03-12T14:16:28.086Z,94.87
2023-03-12T14:18:54.737Z,94.46
2023-03-12T14:21:23.552Z,93.15
2023-03-12T14:23:55.717Z,92.37
2023-03-12T14:26:34.928Z,91.96
2023-03-12T14:29:25.408Z,91.28
2023-03-12T14:31:56.800Z,90.12
2023-03-12T14:34:28.951Z,89.03
2023-03-12T14:37:00.426Z,87.67
2023-03-12T14:39:46.544Z,86.75
2023-03-12T14:42:26.511Z,86.92
2023-03-12T14:44:57.730Z,85.82
2023-03-12T14:47:24.122Z,85.81
2023-03-12T14:49:50.468Z,85.20
2023-03-12T14:52:26.452Z,84.44
2023-03-12T14:55:07.735Z,83.61
2023-03-12T14:57:34.660Z,83.94
2023-03-12T15:00:01.912Z,82.96
2023-03-12T15:02:30.982Z,82.30
2023-03-12T15:05:01.315Z,81.75
2023-03-12T15:07:33.213Z,82.24
2023-03-12T15:10:00.431Z,82.37
2023-03-12T15:12:33.197Z,82.64
2023-03-12T15:15:16.566Z,82.88
2023-03-12T15:17:43.159Z,82.73
2023-03-12T15:20:16.038Z,82.53
2023-03-12T15:22:42.752Z,82.54
2023-03-12T15:25:20.980Z,82.26
2023-03-12T15:27:47.405Z,82.02
2023-03-12T15:30:28.357Z,81.28
2023-03-12T15:33:26.528Z,81.37
2023-03-12T15:36:07.337Z,81.28
2023-03-12T15:38:35.073Z,81.15
2023-03-12T15:41:08.467Z,81.28
2023-03-12T15:43:35.349Z,81.35
2023-03-12T15:46:05.232Z,81.42
2023-03-12T15:48:39.612Z,81.79
2023-03-12T15:51:35.983Z,81.28
2023-03-12T15:54:24.528Z,81.80
2023-03-12T15:56:51.012Z,81.48
2023-03-12T15:59:25.123Z,81.63
2023-03-12T16:01:54.082Z,81.67
2023-03-12T16:04:21.953Z,81.46
2023-03-12T16:06:50.121Z,81.34
2023-03-12T16:09:20.021Z,81.47
2023-03-12T16:11:47.798Z,81.25
2023-03-12T16:14:24.768Z,81.37
2023-03-12T16:16:51.511Z,81.59
2023-03-12T16:19:21.285Z,81.97
2023-03-12T16:21:48.597Z,81.72
2023-03-12T16:24:18.604Z,81.83
2023-03-12T16:26:51.952Z,81.96
2023-03-12T16:29:19.670Z,82.21
2023-03-12T16:31:55.509Z,82.22
2023-03-12T16:34:22.170Z,82.46
2023-03-12T16:36:48.511Z,82.24
2023-03-12T16:39:15.878Z,82.69
2023-03-12T16:41:43.677Z,82.83
2023-03-12T16:44:19.401Z,82.59
2023-03-12T16:46:46.387Z,82.70
2023-03-12T16:49:17.345Z,83.25
2023-03-12T16:51:44.154Z,83.11
2023-03-12T16:54:12.280Z,83.19
2023-03-12T16:56:43.051Z,83.47
2023-03-12T16:59:24.841Z,83.60
2023-03-12T17:01:51.546Z,83.68
2023-03-12T17:04:17.894Z,83.63
2023-03-12T17:06:44.289Z,83.57
2023-03-12T17:09:11.743Z,83.41
2023-03-12T17:11:38.885Z,83.59
2023-03-12T17:14:20.369Z,83.54
2023-03-12T17:16:46.719Z,83.98
2023-03-12T17:19:13.230Z,83.83
2023-03-12T17:21:40.228Z,83.74
2023-03-12T17:24:06.853Z,84.09
2023-03-12T17:26:34.370Z,83.92
2023-03-12T17:29:00.758Z,84.17
2023-03-12T17:31:27.315Z,83.74
2023-03-12T17:33:53.712Z,83.68
2023-03-12T17:36:20.076Z,83.77
2023-03-12T17:38:46.404Z,83.70
2023-03-12T17:41:25.558Z,83.83
2023-03-12T17:43:52.746Z,83.68
2023-03-12T17:46:19.235Z,83.57
2023-03-12T17:48:45.678Z,83.73
2023-03-12T17:51:12.079Z,83.68
2023-03-12T17:53:41.786Z,83.62
2023-03-12T17:56:08.470Z,83.82
2023-03-12T17:58:34.854Z,83.63
2023-03-12T18:01:01.270Z,83.89
2023-03-12T18:03:27.723Z,83.83
2023-03-12T18:05:54.100Z,84.23
2023-03-12T18:08:20.612Z,83.91
2023-03-12T18:10:47.925Z,84.10
2023-03-12T18:13:14.405Z,84.11
2023-03-12T18:15:41.203Z,84.36
2023-03-12T18:18:07.633Z,84.15
2023-03-12T18:20:39.287Z,84.24
2023-03-12T18:23:06.865Z,84.11
2023-03-12T18:25:33.478Z,84.19
2023-03-12T18:27:59.890Z,84.63
2023-03-12T18:30:28.212Z,84.48
2023-03-12T18:32:54.751Z,84.60
2023-03-12T18:35:22.292Z,84.36
2023-03-12T18:37:48.702Z,84.50
2023-03-12T18:40:15.187Z,84.45
2023-03-12T18:42:44.301Z,84.60
2023-03-12T18:45:12.130Z,84.69
2023-03-12T18:47:44.807Z,84.65
2023-03-12T18:50:12.428Z,84.27
2023-03-12T18:52:38.811Z,84.42
2023-03-12T18:55:05.533Z,84.22
2023-03-12T18:57:32.096Z,84.49
2023-03-12T18:59:59.296Z,84.60
2023-03-12T19:02:25.826Z,84.46
2023-03-12T19:04:54.209Z,84.31
2023-03-12T19:07:22.330Z,84.39
2023-03-12T19:09:48.806Z,84.22
2023-03-12T19:12:15.134Z,84.62
2023-03-12T19:14:41.585Z,85.07
2023-03-12T19:17:07.919Z,84.68
2023-03-12T19:19:34.329Z,85.17
2023-03-12T19:22:00.703Z,85.51
2023-03-12T19:24:27.104Z,85.64
2023-03-12T19:26:53.404Z,85.49
2023-03-12T19:29:19.816Z,85.72
2023-03-12T19:31:46.202Z,85.47
2023-03-12T19:34:12.796Z,85.44
2023-03-12T19:36:39.233Z,85.50
2023-03-12T19:39:15.202Z,85.55
2023-03-12T19:41:47.082Z,84.95
2023-03-12T19:44:13.387Z,85.12
2023-03-12T19:46:42.921Z,84.86
2023-03-12T19:49:09.334Z,84.44
2023-03-12T19:51:36.054Z,84.81
2023-03-12T19:54:02.493Z,84.57
2023-03-12T19:56:29.348Z,84.56
2023-03-12T19:58:55.664Z,85.01
2023-03-12T20:01:22.918Z,84.78
2023-03-12T20:03:49.347Z,84.81
2023-03-12T20:06:15.660Z,85.45
2023-03-12T20:08:42.038Z,85.25
2023-03-12T20:11:10.229Z,85.53
2023-03-12T20:13:40.064Z,85.71
2023-03-12T20:16:07.667Z,85.73
2023-03-12T20:18:34.391Z,85.84
2023-03-12T20:21:00.811Z,86.01
2023-03-12T20:23:27.166Z,86.29
2023-03-12T20:25:53.532Z,86.36
2023-03-12T20:28:19.919Z,86.41
2023-03-12T20:30:46.350Z,86.33
2023-03-12T20:33:12.890Z,86.57
2023-03-12T20:35:39.656Z,86.79
2023-03-12T20:38:06.180Z,86.84
2023-03-12T20:40:32.530Z,86.71
2023-03-12T20:42:58.903Z,86.66
2023-03-12T20:45:25.466Z,86.61
2023-03-12T20:47:53.509Z,86.95
2023-03-12T20:50:20.869Z,86.72
2023-03-12T20:52:47.304Z,86.71
2023-03-12T20:55:13.680Z,86.63
2023-03-12T20:57:40.093Z,86.92
2023-03-12T21:00:07.414Z,86.73
2023-03-12T21:02:34.771Z,86.80
2023-03-12T21:05:01.249Z,86.70
2023-03-12T21:07:27.762Z,86.86
2023-03-12T21:09:54.162Z,86.68
2023-03-12T21:12:20.539Z,86.61
2023-03-12T21:14:47.662Z,86.98
2023-03-12T21:17:14.684Z,86.68
2023-03-12T21:19:41.961Z,86.83
2023-03-12T21:22:08.842Z,86.61
2023-03-12T21:24:36.013Z,86.98
2023-03-12T21:27:02.408Z,86.90
2023-03-12T21:29:28.811Z,86.79
2023-03-12T21:31:55.249Z,86.87
2023-03-12T21:34:22.477Z,87.00
2023-03-12T21:36:49.018Z,86.61
2023-03-12T21:39:15.377Z,86.93
2023-03-12T21:41:41.802Z,86.59
2023-03-12T21:44:08.163Z,86.69
2023-03-12T21:46:34.811Z,86.85
2023-03-12T21:49:01.198Z,86.90
2023-03-12T21:51:27.697Z,86.89
2023-03-12T21:53:55.773Z,86.69
2023-03-12T21:56:22.977Z,86.89
2023-03-12T21:58:49.295Z,86.86
2023-03-12T22:01:17.641Z,86.86
2023-03-12T22:03:45.901Z,86.96
2023-03-12T22:06:13.548Z,87.03
2023-03-12T22:08:40.363Z,86.95
2023-03-12T22:11:08.404Z,86.87
2023-03-12T22:13:34.897Z,86.84
2023-03-12T22:16:05.977Z,87.00
2023-03-12T22:18:32.756Z,87.04
2023-03-12T22:21:01.574Z,87.09
2023-03-12T22:23:29.098Z,86.75
2023-03-12T22:25:55.725Z,86.91
2023-03-12T22:28:25.646Z,86.68
2023-03-12T22:31:00.661Z,86.68
2023-03-12T22:33:28.227Z,86.76
2023-03-12T22:35:54.683Z,86.70
2023-03-12T22:38:22.115Z,86.69
2023-03-12T22:40:48.975Z,87.06
2023-03-12T22:43:15.534Z,86.88
2023-03-12T22:45:42.226Z,87.32
2023-03-12T22:48:08.663Z,87.11
2023-03-12T22:50:35.127Z,87.39
2023-03-12T22:53:01.496Z,87.66
2023-03-12T22:55:27.875Z,87.87
2023-03-12T22:57:54.239Z,88.24
2023-03-12T23:00:23.921Z,88.07
2023-03-12T23:02:50.485Z,88.62
2023-03-12T23:05:17.221Z,88.94
2023-03-12T23:07:43.702Z,89.08
2023-03-12T23:10:10.447Z,89.11
2023-03-12T23:12:36.768Z,89.21
2023-03-12T23:15:03.342Z,89.34
2023-03-12T23:17:29.688Z,89.67
2023-03-12T23:19:55.996Z,89.69
2023-03-12T23:22:22.394Z,89.80
2023-03-12T23:24:49.663Z,89.82
2023-03-12T23:27:16.014Z,90.42
2023-03-12T23:29:42.373Z,90.46
2023-03-12T23:32:08.790Z,90.31
2023-03-12T23:34:35.252Z,90.60
2023-03-12T23:37:01.895Z,90.81
2023-03-12T23:39:30.633Z,90.81
2023-03-12T23:41:57.836Z,90.72
2023-03-12T23:44:24.334Z,90.88
2023-03-12T23:46:50.709Z,91.17
2023-03-12T23:49:17.096Z,91.03
2023-03-12T23:51:43.517Z,91.39
2023-03-12T23:54:09.896Z,91.26
2023-03-12T23:56:38.529Z,91.46
2023-03-12T23:59:06.327Z,91.19
